sensor_id;sensor_type;location;lat;lon;timestamp;P1;durP1;ratioP1;P2;durP2;ratioP2
71320;SDS011;59118;54.322;18.576;2022-07-22T00:00:54;19.67;;;13.82;;
71320;SDS011;59118;54.322;18.576;2022-07-22T00:03:21;21.40;;;13.35;;
71320;SDS011;59118;54.322;18.576;2022-07-22T00:05:47;20.90;;;13.52;;
71320;SDS011;59118;54.322;18.576;2022-07-22T00:08:14;17.77;;;12.33;;
71320;SDS011;59118;54.322;18.576;2022-07-22T00:10:41;19.02;;;12.73;;
71320;SDS011;59118;54.322;18.576;2022-07-22T00:13:07;20.65;;;13.05;;
71320;SDS011;59118;54.322;18.576;2022-07-22T00:15:34;19.45;;;12.30;;
71320;SDS011;59118;54.322;18.576;2022-07-22T00:18:01;20.00;;;13.07;;
71320;SDS011;59118;54.322;18.576;2022-07-22T00:20:27;20.13;;;12.90;;
71320;SDS011;59118;54.322;18.576;2022-07-22T00:22:54;20.20;;;12.65;;
71320;SDS011;59118;54.322;18.576;2022-07-22T00:25:24;19.65;;;13.38;;
71320;SDS011;59118;54.322;18.576;2022-07-22T00:27:52;17.70;;;12.68;;
71320;SDS011;59118;54.322;18.576;2022-07-22T00:30:18;22.25;;;13.55;;
71320;SDS011;59118;54.322;18.576;2022-07-22T00:32:44;20.43;;;12.80;;
71320;SDS011;59118;54.322;18.576;2022-07-22T00:35:13;19.00;;;13.60;;
71320;SDS011;59118;54.322;18.576;2022-07-22T00:37:41;18.92;;;13.27;;
71320;SDS011;59118;54.322;18.576;2022-07-22T00:40:07;19.73;;;13.20;;
71320;SDS011;59118;54.322;18.576;2022-07-22T00:42:34;19.98;;;13.60;;
71320;SDS011;59118;54.322;18.576;2022-07-22T00:45:01;18.53;;;12.93;;
71320;SDS011;59118;54.322;18.576;2022-07-22T00:47:28;21.67;;;13.32;;
71320;SDS011;59118;54.322;18.576;2022-07-22T00:49:55;18.80;;;13.00;;
71320;SDS011;59118;54.322;18.576;2022-07-22T00:52:21;21.15;;;13.07;;
71320;SDS011;59118;54.322;18.576;2022-07-22T00:54:48;18.63;;;13.10;;
71320;SDS011;59118;54.322;18.576;2022-07-22T00:57:15;19.23;;;13.07;;
71320;SDS011;59118;54.322;18.576;2022-07-22T00:59:42;18.10;;;12.70;;
71320;SDS011;59118;54.322;18.576;2022-07-22T01:02:09;18.95;;;12.32;;
71320;SDS011;59118;54.322;18.576;2022-07-22T01:04:36;19.67;;;12.40;;
71320;SDS011;59118;54.322;18.576;2022-07-22T01:07:03;20.45;;;12.98;;
71320;SDS011;59118;54.322;18.576;2022-07-22T01:09:29;19.47;;;12.50;;
71320;SDS011;59118;54.322;18.576;2022-07-22T01:11:56;20.77;;;12.90;;
71320;SDS011;59118;54.322;18.576;2022-07-22T01:14:22;22.48;;;12.98;;
71320;SDS011;59118;54.322;18.576;2022-07-22T01:16:49;18.92;;;12.40;;
71320;SDS011;59118;54.322;18.576;2022-07-22T01:19:16;17.02;;;12.80;;
71320;SDS011;59118;54.322;18.576;2022-07-22T01:21:42;21.10;;;12.53;;
71320;SDS011;59118;54.322;18.576;2022-07-22T01:24:09;18.45;;;12.40;;
71320;SDS011;59118;54.322;18.576;2022-07-22T01:26:35;20.27;;;12.90;;
71320;SDS011;59118;54.322;18.576;2022-07-22T01:29:02;20.98;;;12.98;;
71320;SDS011;59118;54.322;18.576;2022-07-22T01:31:29;20.95;;;12.18;;
71320;SDS011;59118;54.322;18.576;2022-07-22T01:33:56;18.53;;;12.73;;
71320;SDS011;59118;54.322;18.576;2022-07-22T01:36:23;18.52;;;13.10;;
71320;SDS011;59118;54.322;18.576;2022-07-22T01:38:52;21.55;;;13.38;;
71320;SDS011;59118;54.322;18.576;2022-07-22T01:41:20;20.15;;;13.00;;
71320;SDS011;59118;54.322;18.576;2022-07-22T01:43:46;19.10;;;12.98;;
71320;SDS011;59118;54.322;18.576;2022-07-22T01:46:13;19.60;;;12.93;;
71320;SDS011;59118;54.322;18.576;2022-07-22T01:48:47;20.17;;;13.43;;
71320;SDS011;59118;54.322;18.576;2022-07-22T01:51:14;19.38;;;13.50;;
71320;SDS011;59118;54.322;18.576;2022-07-22T01:53:40;19.05;;;12.10;;
71320;SDS011;59118;54.322;18.576;2022-07-22T01:56:07;21.08;;;12.98;;
71320;SDS011;59118;54.322;18.576;2022-07-22T01:58:34;19.27;;;13.13;;
71320;SDS011;59118;54.322;18.576;2022-07-22T02:01:05;19.10;;;13.00;;
71320;SDS011;59118;54.322;18.576;2022-07-22T02:03:32;19.83;;;13.45;;
71320;SDS011;59118;54.322;18.576;2022-07-22T02:05:59;17.17;;;11.98;;
71320;SDS011;59118;54.322;18.576;2022-07-22T02:08:25;20.00;;;12.82;;
71320;SDS011;59118;54.322;18.576;2022-07-22T02:10:52;19.37;;;12.20;;
71320;SDS011;59118;54.322;18.576;2022-07-22T02:13:18;19.70;;;12.98;;
71320;SDS011;59118;54.322;18.576;2022-07-22T02:15:45;18.83;;;13.52;;
71320;SDS011;59118;54.322;18.576;2022-07-22T02:18:12;19.13;;;13.65;;
71320;SDS011;59118;54.322;18.576;2022-07-22T02:20:40;21.83;;;13.50;;
71320;SDS011;59118;54.322;18.576;2022-07-22T02:23:07;19.60;;;12.97;;
71320;SDS011;59118;54.322;18.576;2022-07-22T02:25:34;20.13;;;13.52;;
71320;SDS011;59118;54.322;18.576;2022-07-22T02:28:01;22.73;;;14.30;;
71320;SDS011;59118;54.322;18.576;2022-07-22T02:30:27;25.15;;;13.70;;
71320;SDS011;59118;54.322;18.576;2022-07-22T02:32:54;18.90;;;13.07;;
71320;SDS011;59118;54.322;18.576;2022-07-22T02:35:21;18.13;;;12.67;;
71320;SDS011;59118;54.322;18.576;2022-07-22T02:37:47;19.40;;;13.70;;
71320;SDS011;59118;54.322;18.576;2022-07-22T02:40:14;23.08;;;14.65;;
71320;SDS011;59118;54.322;18.576;2022-07-22T02:42:41;20.88;;;14.45;;
71320;SDS011;59118;54.322;18.576;2022-07-22T02:45:07;24.38;;;14.73;;
71320;SDS011;59118;54.322;18.576;2022-07-22T02:47:43;22.97;;;14.50;;
71320;SDS011;59118;54.322;18.576;2022-07-22T02:50:14;22.40;;;13.57;;
71320;SDS011;59118;54.322;18.576;2022-07-22T02:52:40;18.75;;;12.95;;
71320;SDS011;59118;54.322;18.576;2022-07-22T02:55:07;21.00;;;13.98;;
71320;SDS011;59118;54.322;18.576;2022-07-22T02:57:34;19.90;;;13.45;;
71320;SDS011;59118;54.322;18.576;2022-07-22T03:00:01;18.67;;;13.27;;
71320;SDS011;59118;54.322;18.576;2022-07-22T03:02:27;20.70;;;13.38;;
71320;SDS011;59118;54.322;18.576;2022-07-22T03:04:54;20.70;;;13.75;;
71320;SDS011;59118;54.322;18.576;2022-07-22T03:07:20;21.63;;;12.50;;
71320;SDS011;59118;54.322;18.576;2022-07-22T03:09:47;23.50;;;13.88;;
71320;SDS011;59118;54.322;18.576;2022-07-22T03:12:13;20.90;;;12.63;;
71320;SDS011;59118;54.322;18.576;2022-07-22T03:14:40;21.70;;;13.18;;
71320;SDS011;59118;54.322;18.576;2022-07-22T03:17:08;25.52;;;14.05;;
71320;SDS011;59118;54.322;18.576;2022-07-22T03:19:35;22.48;;;14.32;;
71320;SDS011;59118;54.322;18.576;2022-07-22T03:22:02;20.30;;;14.18;;
71320;SDS011;59118;54.322;18.576;2022-07-22T03:24:29;21.67;;;13.10;;
71320;SDS011;59118;54.322;18.576;2022-07-22T03:26:56;19.83;;;13.70;;
71320;SDS011;59118;54.322;18.576;2022-07-22T03:29:24;21.88;;;13.82;;
71320;SDS011;59118;54.322;18.576;2022-07-22T03:31:51;21.77;;;14.00;;
71320;SDS011;59118;54.322;18.576;2022-07-22T03:34:20;20.60;;;14.43;;
71320;SDS011;59118;54.322;18.576;2022-07-22T03:36:48;19.37;;;14.23;;
71320;SDS011;59118;54.322;18.576;2022-07-22T03:39:15;21.10;;;13.68;;
71320;SDS011;59118;54.322;18.576;2022-07-22T03:41:41;22.85;;;14.85;;
71320;SDS011;59118;54.322;18.576;2022-07-22T03:44:08;19.85;;;13.55;;
71320;SDS011;59118;54.322;18.576;2022-07-22T03:46:35;20.27;;;15.20;;
71320;SDS011;59118;54.322;18.576;2022-07-22T03:49:04;21.87;;;14.43;;
71320;SDS011;59118;54.322;18.576;2022-07-22T03:51:30;24.00;;;14.80;;
71320;SDS011;59118;54.322;18.576;2022-07-22T03:54:00;21.65;;;15.00;;
71320;SDS011;59118;54.322;18.576;2022-07-22T03:56:26;22.52;;;14.40;;
71320;SDS011;59118;54.322;18.576;2022-07-22T03:58:57;22.77;;;14.88;;
71320;SDS011;59118;54.322;18.576;2022-07-22T04:01:24;20.13;;;13.90;;
71320;SDS011;59118;54.322;18.576;2022-07-22T04:03:51;25.40;;;14.82;;
71320;SDS011;59118;54.322;18.576;2022-07-22T04:06:17;21.90;;;14.52;;
71320;SDS011;59118;54.322;18.576;2022-07-22T04:08:44;20.27;;;13.82;;
71320;SDS011;59118;54.322;18.576;2022-07-22T04:11:11;20.58;;;14.43;;
71320;SDS011;59118;54.322;18.576;2022-07-22T04:13:37;23.80;;;14.80;;
71320;SDS011;59118;54.322;18.576;2022-07-22T04:16:04;24.95;;;15.13;;
71320;SDS011;59118;54.322;18.576;2022-07-22T04:18:31;21.45;;;14.50;;
71320;SDS011;59118;54.322;18.576;2022-07-22T04:20:58;21.13;;;14.05;;
71320;SDS011;59118;54.322;18.576;2022-07-22T04:23:25;21.50;;;14.95;;
71320;SDS011;59118;54.322;18.576;2022-07-22T04:25:51;22.53;;;15.23;;
71320;SDS011;59118;54.322;18.576;2022-07-22T04:28:18;21.70;;;14.35;;
71320;SDS011;59118;54.322;18.576;2022-07-22T04:30:44;22.38;;;15.15;;
71320;SDS011;59118;54.322;18.576;2022-07-22T04:33:11;23.25;;;14.88;;
71320;SDS011;59118;54.322;18.576;2022-07-22T04:35:38;21.92;;;14.75;;
71320;SDS011;59118;54.322;18.576;2022-07-22T04:38:04;19.27;;;13.67;;
71320;SDS011;59118;54.322;18.576;2022-07-22T04:40:31;19.23;;;13.65;;
71320;SDS011;59118;54.322;18.576;2022-07-22T04:42:58;22.92;;;14.10;;
71320;SDS011;59118;54.322;18.576;2022-07-22T04:45:24;22.98;;;13.50;;
71320;SDS011;59118;54.322;18.576;2022-07-22T04:47:51;22.92;;;13.80;;
71320;SDS011;59118;54.322;18.576;2022-07-22T04:50:18;23.30;;;14.33;;
71320;SDS011;59118;54.322;18.576;2022-07-22T04:52:45;28.35;;;14.95;;
71320;SDS011;59118;54.322;18.576;2022-07-22T04:55:15;21.70;;;14.10;;
71320;SDS011;59118;54.322;18.576;2022-07-22T04:57:42;21.75;;;14.68;;
71320;SDS011;59118;54.322;18.576;2022-07-22T05:00:08;22.95;;;14.48;;
71320;SDS011;59118;54.322;18.576;2022-07-22T05:02:35;20.20;;;14.00;;
71320;SDS011;59118;54.322;18.576;2022-07-22T05:05:02;24.00;;;13.77;;
71320;SDS011;59118;54.322;18.576;2022-07-22T05:07:29;23.27;;;14.43;;
71320;SDS011;59118;54.322;18.576;2022-07-22T05:09:55;22.98;;;13.88;;
71320;SDS011;59118;54.322;18.576;2022-07-22T05:12:22;21.40;;;13.27;;
71320;SDS011;59118;54.322;18.576;2022-07-22T05:14:48;22.23;;;13.50;;
71320;SDS011;59118;54.322;18.576;2022-07-22T05:17:15;20.63;;;13.15;;
71320;SDS011;59118;54.322;18.576;2022-07-22T05:19:42;24.83;;;13.77;;
71320;SDS011;59118;54.322;18.576;2022-07-22T05:22:08;23.52;;;13.35;;
71320;SDS011;59118;54.322;18.576;2022-07-22T05:24:35;22.02;;;14.02;;
71320;SDS011;59118;54.322;18.576;2022-07-22T05:27:02;18.60;;;13.57;;
71320;SDS011;59118;54.322;18.576;2022-07-22T05:29:28;22.80;;;13.35;;
71320;SDS011;59118;54.322;18.576;2022-07-22T05:31:55;24.80;;;13.55;;
71320;SDS011;59118;54.322;18.576;2022-07-22T05:34:22;20.25;;;13.60;;
71320;SDS011;59118;54.322;18.576;2022-07-22T05:36:49;22.45;;;13.85;;
71320;SDS011;59118;54.322;18.576;2022-07-22T05:39:15;20.63;;;13.67;;
71320;SDS011;59118;54.322;18.576;2022-07-22T05:41:42;23.88;;;14.02;;
71320;SDS011;59118;54.322;18.576;2022-07-22T05:44:08;22.00;;;13.27;;
71320;SDS011;59118;54.322;18.576;2022-07-22T05:46:35;25.92;;;14.23;;
71320;SDS011;59118;54.322;18.576;2022-07-22T05:49:02;26.38;;;14.25;;
71320;SDS011;59118;54.322;18.576;2022-07-22T05:51:28;24.53;;;14.53;;
71320;SDS011;59118;54.322;18.576;2022-07-22T05:53:55;27.38;;;15.10;;
71320;SDS011;59118;54.322;18.576;2022-07-22T05:56:23;26.40;;;15.38;;
71320;SDS011;59118;54.322;18.576;2022-07-22T05:58:49;25.10;;;15.70;;
71320;SDS011;59118;54.322;18.576;2022-07-22T06:01:16;24.45;;;15.75;;
71320;SDS011;59118;54.322;18.576;2022-07-22T06:03:42;26.30;;;16.00;;
71320;SDS011;59118;54.322;18.576;2022-07-22T06:06:09;31.35;;;17.77;;
71320;SDS011;59118;54.322;18.576;2022-07-22T06:08:36;31.55;;;17.95;;
71320;SDS011;59118;54.322;18.576;2022-07-22T06:11:03;27.23;;;17.52;;
71320;SDS011;59118;54.322;18.576;2022-07-22T06:13:29;31.25;;;18.38;;
71320;SDS011;59118;54.322;18.576;2022-07-22T06:15:57;30.23;;;18.33;;
71320;SDS011;59118;54.322;18.576;2022-07-22T06:18:24;33.40;;;19.08;;
71320;SDS011;59118;54.322;18.576;2022-07-22T06:20:51;30.50;;;18.67;;
71320;SDS011;59118;54.322;18.576;2022-07-22T06:23:17;29.27;;;18.17;;
71320;SDS011;59118;54.322;18.576;2022-07-22T06:25:45;29.08;;;19.15;;
71320;SDS011;59118;54.322;18.576;2022-07-22T06:28:11;28.17;;;19.10;;
71320;SDS011;59118;54.322;18.576;2022-07-22T06:30:41;35.13;;;20.52;;
71320;SDS011;59118;54.322;18.576;2022-07-22T06:33:07;35.78;;;20.20;;
71320;SDS011;59118;54.322;18.576;2022-07-22T06:35:34;32.00;;;19.85;;
71320;SDS011;59118;54.322;18.576;2022-07-22T06:38:01;29.63;;;20.13;;
71320;SDS011;59118;54.322;18.576;2022-07-22T06:40:32;35.00;;;20.03;;
71320;SDS011;59118;54.322;18.576;2022-07-22T06:43:01;30.52;;;20.15;;
71320;SDS011;59118;54.322;18.576;2022-07-22T06:45:29;31.80;;;20.77;;
71320;SDS011;59118;54.322;18.576;2022-07-22T06:47:55;34.15;;;21.70;;
71320;SDS011;59118;54.322;18.576;2022-07-22T06:50:22;35.83;;;22.80;;
71320;SDS011;59118;54.322;18.576;2022-07-22T06:52:51;36.47;;;22.67;;
71320;SDS011;59118;54.322;18.576;2022-07-22T06:55:18;33.63;;;22.98;;
71320;SDS011;59118;54.322;18.576;2022-07-22T06:57:45;35.65;;;23.27;;
71320;SDS011;59118;54.322;18.576;2022-07-22T07:00:12;38.00;;;23.30;;
71320;SDS011;59118;54.322;18.576;2022-07-22T07:02:39;34.13;;;22.98;;
71320;SDS011;59118;54.322;18.576;2022-07-22T07:05:05;31.60;;;21.80;;
71320;SDS011;59118;54.322;18.576;2022-07-22T07:07:32;33.42;;;22.58;;
71320;SDS011;59118;54.322;18.576;2022-07-22T07:10:03;31.20;;;19.33;;
71320;SDS011;59118;54.322;18.576;2022-07-22T07:12:34;25.95;;;18.00;;
71320;SDS011;59118;54.322;18.576;2022-07-22T07:15:03;24.50;;;17.73;;
71320;SDS011;59118;54.322;18.576;2022-07-22T07:17:50;31.67;;;18.47;;
71320;SDS011;59118;54.322;18.576;2022-07-22T07:20:18;28.80;;;20.27;;
71320;SDS011;59118;54.322;18.576;2022-07-22T07:22:44;29.17;;;20.20;;
71320;SDS011;59118;54.322;18.576;2022-07-22T07:25:11;29.88;;;20.02;;
71320;SDS011;59118;54.322;18.576;2022-07-22T07:27:49;30.45;;;21.15;;
71320;SDS011;59118;54.322;18.576;2022-07-22T07:30:19;34.70;;;24.13;;
71320;SDS011;59118;54.322;18.576;2022-07-22T07:32:46;34.90;;;22.35;;
71320;SDS011;59118;54.322;18.576;2022-07-22T07:35:12;32.63;;;22.13;;
71320;SDS011;59118;54.322;18.576;2022-07-22T07:37:39;37.28;;;20.50;;
71320;SDS011;59118;54.322;18.576;2022-07-22T07:40:05;33.05;;;19.52;;
71320;SDS011;59118;54.322;18.576;2022-07-22T07:42:34;28.13;;;18.43;;
71320;SDS011;59118;54.322;18.576;2022-07-22T07:45:00;28.60;;;19.52;;
71320;SDS011;59118;54.322;18.576;2022-07-22T07:47:27;27.67;;;19.33;;
71320;SDS011;59118;54.322;18.576;2022-07-22T07:49:54;28.13;;;18.75;;
71320;SDS011;59118;54.322;18.576;2022-07-22T07:52:20;30.58;;;20.17;;
71320;SDS011;59118;54.322;18.576;2022-07-22T07:54:47;26.00;;;18.90;;
71320;SDS011;59118;54.322;18.576;2022-07-22T07:57:34;28.10;;;19.65;;
71320;SDS011;59118;54.322;18.576;2022-07-22T08:00:03;26.00;;;18.13;;
71320;SDS011;59118;54.322;18.576;2022-07-22T08:02:37;25.40;;;18.48;;
71320;SDS011;59118;54.322;18.576;2022-07-22T08:05:04;30.13;;;18.88;;
71320;SDS011;59118;54.322;18.576;2022-07-22T08:07:32;29.17;;;19.57;;
71320;SDS011;59118;54.322;18.576;2022-07-22T08:10:00;29.92;;;20.58;;
71320;SDS011;59118;54.322;18.576;2022-07-22T08:12:48;31.80;;;20.60;;
71320;SDS011;59118;54.322;18.576;2022-07-22T08:15:15;30.63;;;19.73;;
71320;SDS011;59118;54.322;18.576;2022-07-22T08:17:42;26.85;;;19.67;;
71320;SDS011;59118;54.322;18.576;2022-07-22T08:20:09;31.00;;;20.50;;
71320;SDS011;59118;54.322;18.576;2022-07-22T08:22:36;33.53;;;21.95;;
71320;SDS011;59118;54.322;18.576;2022-07-22T08:25:03;33.35;;;22.98;;
71320;SDS011;59118;54.322;18.576;2022-07-22T08:27:31;29.80;;;21.10;;
71320;SDS011;59118;54.322;18.576;2022-07-22T08:29:57;29.33;;;20.92;;
71320;SDS011;59118;54.322;18.576;2022-07-22T08:32:24;28.70;;;21.57;;
71320;SDS011;59118;54.322;18.576;2022-07-22T08:34:50;31.88;;;19.88;;
71320;SDS011;59118;54.322;18.576;2022-07-22T08:37:17;34.75;;;21.05;;
71320;SDS011;59118;54.322;18.576;2022-07-22T08:39:44;28.80;;;19.42;;
71320;SDS011;59118;54.322;18.576;2022-07-22T08:42:10;32.53;;;19.40;;
71320;SDS011;59118;54.322;18.576;2022-07-22T08:44:37;30.23;;;19.43;;
71320;SDS011;59118;54.322;18.576;2022-07-22T08:47:03;26.63;;;17.40;;
71320;SDS011;59118;54.322;18.576;2022-07-22T08:49:50;27.27;;;17.45;;
71320;SDS011;59118;54.322;18.576;2022-07-22T08:52:17;25.52;;;17.63;;
71320;SDS011;59118;54.322;18.576;2022-07-22T08:54:43;26.75;;;17.67;;
71320;SDS011;59118;54.322;18.576;2022-07-22T08:57:10;28.50;;;18.73;;
71320;SDS011;59118;54.322;18.576;2022-07-22T08:59:56;28.58;;;19.15;;
71320;SDS011;59118;54.322;18.576;2022-07-22T09:02:24;26.13;;;17.20;;
71320;SDS011;59118;54.322;18.576;2022-07-22T09:04:52;20.42;;;14.07;;
71320;SDS011;59118;54.322;18.576;2022-07-22T09:07:33;19.45;;;14.45;;
71320;SDS011;59118;54.322;18.576;2022-07-22T09:10:07;23.27;;;15.40;;
71320;SDS011;59118;54.322;18.576;2022-07-22T09:12:51;24.55;;;14.95;;
71320;SDS011;59118;54.322;18.576;2022-07-22T09:15:29;20.50;;;14.23;;
71320;SDS011;59118;54.322;18.576;2022-07-22T09:17:57;27.73;;;14.82;;
71320;SDS011;59118;54.322;18.576;2022-07-22T09:20:29;18.65;;;11.57;;
71320;SDS011;59118;54.322;18.576;2022-07-22T09:22:57;19.13;;;12.13;;
71320;SDS011;59118;54.322;18.576;2022-07-22T09:25:28;16.58;;;11.65;;
71320;SDS011;59118;54.322;18.576;2022-07-22T09:30:48;15.93;;;9.40;;
71320;SDS011;59118;54.322;18.576;2022-07-22T09:33:18;15.93;;;9.93;;
71320;SDS011;59118;54.322;18.576;2022-07-22T09:35:46;15.83;;;9.40;;
71320;SDS011;59118;54.322;18.576;2022-07-22T09:38:17;18.52;;;10.63;;
71320;SDS011;59118;54.322;18.576;2022-07-22T09:40:46;15.35;;;9.85;;
71320;SDS011;59118;54.322;18.576;2022-07-22T09:43:15;15.00;;;9.63;;
71320;SDS011;59118;54.322;18.576;2022-07-22T09:45:45;16.10;;;9.88;;
71320;SDS011;59118;54.322;18.576;2022-07-22T09:48:13;19.87;;;11.40;;
71320;SDS011;59118;54.322;18.576;2022-07-22T09:50:39;22.45;;;11.82;;
71320;SDS011;59118;54.322;18.576;2022-07-22T09:53:06;22.05;;;13.57;;
71320;SDS011;59118;54.322;18.576;2022-07-22T09:55:33;21.10;;;13.30;;
71320;SDS011;59118;54.322;18.576;2022-07-22T09:57:59;22.58;;;12.38;;
71320;SDS011;59118;54.322;18.576;2022-07-22T10:00:27;23.40;;;14.17;;
71320;SDS011;59118;54.322;18.576;2022-07-22T10:02:58;23.80;;;14.52;;
71320;SDS011;59118;54.322;18.576;2022-07-22T10:05:27;24.80;;;15.82;;
71320;SDS011;59118;54.322;18.576;2022-07-22T10:07:56;21.70;;;14.93;;
71320;SDS011;59118;54.322;18.576;2022-07-22T10:10:24;23.52;;;15.82;;
71320;SDS011;59118;54.322;18.576;2022-07-22T10:12:53;22.43;;;15.37;;
71320;SDS011;59118;54.322;18.576;2022-07-22T10:15:23;24.65;;;15.13;;
71320;SDS011;59118;54.322;18.576;2022-07-22T10:18:01;22.27;;;15.25;;
71320;SDS011;59118;54.322;18.576;2022-07-22T10:20:33;23.38;;;14.75;;
71320;SDS011;59118;54.322;18.576;2022-07-22T10:23:04;22.00;;;14.57;;
71320;SDS011;59118;54.322;18.576;2022-07-22T10:28:24;21.85;;;13.85;;
71320;SDS011;59118;54.322;18.576;2022-07-22T10:30:50;23.63;;;15.18;;
71320;SDS011;59118;54.322;18.576;2022-07-22T10:33:18;24.38;;;15.73;;
71320;SDS011;59118;54.322;18.576;2022-07-22T10:38:19;21.33;;;14.10;;
71320;SDS011;59118;54.322;18.576;2022-07-22T10:43:16;14.77;;;10.38;;
71320;SDS011;59118;54.322;18.576;2022-07-22T10:45:45;15.07;;;10.38;;
71320;SDS011;59118;54.322;18.576;2022-07-22T10:48:18;14.93;;;10.20;;
71320;SDS011;59118;54.322;18.576;2022-07-22T10:50:47;14.33;;;9.43;;
71320;SDS011;59118;54.322;18.576;2022-07-22T10:53:20;12.32;;;9.10;;
71320;SDS011;59118;54.322;18.576;2022-07-22T10:55:58;13.13;;;9.65;;
71320;SDS011;59118;54.322;18.576;2022-07-22T11:00:59;13.95;;;9.85;;
71320;SDS011;59118;54.322;18.576;2022-07-22T11:03:28;15.80;;;9.80;;
71320;SDS011;59118;54.322;18.576;2022-07-22T11:05:55;14.07;;;9.65;;
71320;SDS011;59118;54.322;18.576;2022-07-22T11:08:22;14.88;;;10.35;;
71320;SDS011;59118;54.322;18.576;2022-07-22T11:10:49;12.93;;;9.90;;
71320;SDS011;59118;54.322;18.576;2022-07-22T11:21:22;15.65;;;10.35;;
71320;SDS011;59118;54.322;18.576;2022-07-22T11:23:56;18.35;;;10.50;;
71320;SDS011;59118;54.322;18.576;2022-07-22T11:26:43;12.20;;;9.73;;
71320;SDS011;59118;54.322;18.576;2022-07-22T11:31:44;15.00;;;10.55;;
71320;SDS011;59118;54.322;18.576;2022-07-22T11:34:11;12.55;;;10.73;;
71320;SDS011;59118;54.322;18.576;2022-07-22T11:36:40;13.98;;;11.07;;
71320;SDS011;59118;54.322;18.576;2022-07-22T11:39:09;15.98;;;11.07;;
71320;SDS011;59118;54.322;18.576;2022-07-22T11:41:36;13.07;;;10.70;;
71320;SDS011;59118;54.322;18.576;2022-07-22T11:44:03;13.95;;;10.43;;
71320;SDS011;59118;54.322;18.576;2022-07-22T11:46:37;17.02;;;10.65;;
71320;SDS011;59118;54.322;18.576;2022-07-22T11:49:08;14.70;;;10.90;;
71320;SDS011;59118;54.322;18.576;2022-07-22T11:51:36;12.85;;;10.60;;
71320;SDS011;59118;54.322;18.576;2022-07-22T11:54:04;13.13;;;10.30;;
71320;SDS011;59118;54.322;18.576;2022-07-22T11:56:31;12.43;;;9.95;;
71320;SDS011;59118;54.322;18.576;2022-07-22T11:58:58;14.27;;;10.25;;
71320;SDS011;59118;54.322;18.576;2022-07-22T12:01:25;13.75;;;9.82;;
71320;SDS011;59118;54.322;18.576;2022-07-22T12:03:54;13.07;;;10.05;;
71320;SDS011;59118;54.322;18.576;2022-07-22T12:06:26;12.37;;;10.17;;
71320;SDS011;59118;54.322;18.576;2022-07-22T12:08:54;13.90;;;10.55;;
71320;SDS011;59118;54.322;18.576;2022-07-22T12:11:23;13.50;;;10.35;;
71320;SDS011;59118;54.322;18.576;2022-07-22T12:13:53;13.63;;;10.13;;
71320;SDS011;59118;54.322;18.576;2022-07-22T12:16:28;12.15;;;9.98;;
71320;SDS011;59118;54.322;18.576;2022-07-22T12:18:59;13.93;;;9.97;;
71320;SDS011;59118;54.322;18.576;2022-07-22T12:21:29;12.20;;;9.32;;
71320;SDS011;59118;54.322;18.576;2022-07-22T12:24:00;11.73;;;9.18;;
71320;SDS011;59118;54.322;18.576;2022-07-22T12:26:46;15.00;;;9.82;;
71320;SDS011;59118;54.322;18.576;2022-07-22T12:29:14;14.02;;;10.18;;
71320;SDS011;59118;54.322;18.576;2022-07-22T12:31:45;12.70;;;8.93;;
71320;SDS011;59118;54.322;18.576;2022-07-22T12:34:12;12.88;;;9.80;;
71320;SDS011;59118;54.322;18.576;2022-07-22T12:36:43;15.85;;;10.18;;
71320;SDS011;59118;54.322;18.576;2022-07-22T12:39:12;11.55;;;9.32;;
71320;SDS011;59118;54.322;18.576;2022-07-22T12:41:47;12.65;;;9.98;;
71320;SDS011;59118;54.322;18.576;2022-07-22T12:44:16;14.43;;;9.37;;
71320;SDS011;59118;54.322;18.576;2022-07-22T12:46:43;12.57;;;10.07;;
71320;SDS011;59118;54.322;18.576;2022-07-22T12:49:14;14.07;;;9.93;;
71320;SDS011;59118;54.322;18.576;2022-07-22T12:51:42;15.18;;;10.32;;
71320;SDS011;59118;54.322;18.576;2022-07-22T12:54:30;10.30;;;8.13;;
71320;SDS011;59118;54.322;18.576;2022-07-22T12:56:57;11.77;;;8.40;;
71320;SDS011;59118;54.322;18.576;2022-07-22T12:59:24;12.30;;;8.13;;
71320;SDS011;59118;54.322;18.576;2022-07-22T13:01:50;12.65;;;8.98;;
71320;SDS011;59118;54.322;18.576;2022-07-22T13:04:17;11.93;;;8.57;;
71320;SDS011;59118;54.322;18.576;2022-07-22T13:06:43;11.90;;;8.63;;
71320;SDS011;59118;54.322;18.576;2022-07-22T13:09:10;13.27;;;9.30;;
71320;SDS011;59118;54.322;18.576;2022-07-22T13:11:43;11.15;;;8.50;;
71320;SDS011;59118;54.322;18.576;2022-07-22T13:14:12;12.02;;;8.10;;
71320;SDS011;59118;54.322;18.576;2022-07-22T13:16:40;10.55;;;7.78;;
71320;SDS011;59118;54.322;18.576;2022-07-22T13:19:07;10.82;;;7.95;;
71320;SDS011;59118;54.322;18.576;2022-07-22T13:21:34;11.53;;;8.50;;
71320;SDS011;59118;54.322;18.576;2022-07-22T13:24:00;10.32;;;8.35;;
71320;SDS011;59118;54.322;18.576;2022-07-22T13:26:27;10.60;;;8.18;;
71320;SDS011;59118;54.322;18.576;2022-07-22T13:28:56;10.23;;;8.07;;
71320;SDS011;59118;54.322;18.576;2022-07-22T13:31:22;10.38;;;8.00;;
71320;SDS011;59118;54.322;18.576;2022-07-22T13:33:49;13.87;;;8.27;;
71320;SDS011;59118;54.322;18.576;2022-07-22T13:36:16;10.98;;;8.20;;
71320;SDS011;59118;54.322;18.576;2022-07-22T13:38:42;15.45;;;8.93;;
71320;SDS011;59118;54.322;18.576;2022-07-22T13:41:09;16.98;;;11.25;;
71320;SDS011;59118;54.322;18.576;2022-07-22T13:43:43;16.00;;;11.18;;
71320;SDS011;59118;54.322;18.576;2022-07-22T13:46:11;15.27;;;10.73;;
71320;SDS011;59118;54.322;18.576;2022-07-22T13:48:38;16.92;;;11.07;;
71320;SDS011;59118;54.322;18.576;2022-07-22T13:51:04;16.65;;;10.77;;
71320;SDS011;59118;54.322;18.576;2022-07-22T13:53:31;17.35;;;10.10;;
71320;SDS011;59118;54.322;18.576;2022-07-22T13:55:58;15.82;;;10.85;;
71320;SDS011;59118;54.322;18.576;2022-07-22T13:58:26;16.87;;;10.67;;
71320;SDS011;59118;54.322;18.576;2022-07-22T14:00:52;16.48;;;11.48;;
71320;SDS011;59118;54.322;18.576;2022-07-22T14:03:22;18.27;;;11.98;;
71320;SDS011;59118;54.322;18.576;2022-07-22T14:05:49;17.10;;;11.07;;
71320;SDS011;59118;54.322;18.576;2022-07-22T14:08:15;15.50;;;11.38;;
71320;SDS011;59118;54.322;18.576;2022-07-22T14:10:42;16.77;;;11.83;;
71320;SDS011;59118;54.322;18.576;2022-07-22T14:13:08;18.05;;;11.57;;
71320;SDS011;59118;54.322;18.576;2022-07-22T14:15:37;17.45;;;11.20;;
71320;SDS011;59118;54.322;18.576;2022-07-22T14:18:05;17.38;;;10.27;;
71320;SDS011;59118;54.322;18.576;2022-07-22T14:20:33;18.30;;;10.77;;
71320;SDS011;59118;54.322;18.576;2022-07-22T14:23:00;20.67;;;11.17;;
71320;SDS011;59118;54.322;18.576;2022-07-22T14:25:28;20.63;;;12.85;;
71320;SDS011;59118;54.322;18.576;2022-07-22T14:27:55;18.60;;;12.23;;
71320;SDS011;59118;54.322;18.576;2022-07-22T14:30:42;21.10;;;13.48;;
71320;SDS011;59118;54.322;18.576;2022-07-22T14:33:09;20.65;;;14.55;;
71320;SDS011;59118;54.322;18.576;2022-07-22T14:35:35;21.00;;;13.63;;
71320;SDS011;59118;54.322;18.576;2022-07-22T14:38:02;22.63;;;14.18;;
71320;SDS011;59118;54.322;18.576;2022-07-22T14:40:30;19.55;;;13.57;;